createdAt,value
2023-02-25T00:01:08.410Z,21.02
2023-02-25T00:03:36.440Z,13.88
2023-02-25T00:06:03.648Z,16.83
2023-02-25T00:08:30.369Z,10.93
2023-02-25T00:11:01.461Z,25.48
2023-02-25T00:13:28.334Z,20.05
2023-02-25T00:15:58.091Z,12.65
2023-02-25T00:18:28.628Z,18.92
2023-02-25T00:20:55.060Z,48.17
2023-02-25T00:23:21.490Z,27.23
2023-02-25T00:25:48.355Z,22.05
2023-02-25T00:28:15.111Z,18.80
2023-02-25T00:30:45.265Z,19.92
2023-02-25T00:33:11.769Z,20.63
2023-02-25T00:35:41.293Z,19.30
2023-02-25T00:38:15.861Z,21.20
2023-02-25T00:40:43.059Z,14.63
2023-02-25T00:43:09.691Z,15.52
2023-02-25T00:45:39.391Z,14.45
2023-02-25T00:48:06.244Z,24.20
2023-02-25T00:50:33.025Z,19.70
2023-02-25T00:52:59.698Z,25.23
2023-02-25T00:55:33.636Z,13.30
2023-02-25T00:58:01.556Z,14.20
2023-02-25T01:00:29.149Z,15.20
2023-02-25T01:02:57.711Z,21.83
2023-02-25T01:05:24.885Z,18.77
2023-02-25T01:07:51.576Z,29.85
2023-02-25T01:10:19.197Z,45.22
2023-02-25T01:12:46.048Z,18.98
2023-02-25T01:15:14.562Z,32.40
2023-02-25T01:17:41.221Z,14.38
2023-02-25T01:20:12.414Z,11.65
2023-02-25T01:22:41.708Z,16.80
2023-02-25T01:25:12.162Z,11.95
2023-02-25T01:27:39.087Z,9.65
2023-02-25T01:30:06.873Z,13.02
2023-02-25T01:32:33.829Z,12.95
2023-02-25T01:35:00.383Z,23.10
2023-02-25T01:37:26.970Z,15.07
2023-02-25T01:39:53.768Z,14.25
2023-02-25T01:42:20.303Z,17.50
2023-02-25T01:45:11.597Z,24.58
2023-02-25T01:47:40.098Z,11.23
2023-02-25T01:50:07.477Z,15.52
2023-02-25T01:52:34.106Z,9.65
2023-02-25T01:55:00.626Z,17.05
2023-02-25T01:57:27.046Z,11.65
2023-02-25T01:59:55.111Z,17.30
2023-02-25T02:02:24.480Z,16.02
2023-02-25T02:04:53.034Z,12.60
2023-02-25T02:07:21.940Z,10.45
2023-02-25T02:09:57.587Z,16.67
2023-02-25T02:12:31.764Z,18.25
2023-02-25T02:15:00.699Z,10.70
2023-02-25T02:17:33.502Z,16.02
2023-02-25T02:20:13.021Z,20.00
2023-02-25T02:22:43.722Z,14.07
2023-02-25T02:25:16.156Z,14.27
2023-02-25T02:28:04.943Z,13.02
2023-02-25T02:30:40.558Z,16.27
2023-02-25T02:33:32.111Z,12.82
2023-02-25T02:36:08.309Z,13.68
2023-02-25T02:38:51.832Z,20.35
2023-02-25T02:41:33.674Z,20.42
2023-02-25T02:44:07.841Z,11.30
2023-02-25T02:46:39.102Z,14.10
2023-02-25T02:49:05.497Z,16.00
2023-02-25T02:51:38.496Z,19.60
2023-02-25T02:54:07.729Z,14.65
2023-02-25T02:56:37.471Z,22.27
2023-02-25T02:59:10.299Z,13.80
2023-02-25T03:01:51.391Z,10.95
2023-02-25T03:04:25.228Z,14.75
2023-02-25T03:06:57.629Z,19.50
2023-02-25T03:09:32.643Z,25.10
2023-02-25T03:11:59.144Z,8.93
2023-02-25T03:14:25.637Z,15.40
2023-02-25T03:17:02.270Z,15.52
2023-02-25T03:19:52.509Z,8.60
2023-02-25T03:22:31.845Z,15.32
2023-02-25T03:25:10.755Z,16.10
2023-02-25T03:27:39.665Z,19.75
2023-02-25T03:30:15.085Z,16.85
2023-02-25T03:32:47.166Z,15.60
2023-02-25T03:35:16.327Z,18.13
2023-02-25T03:37:46.246Z,16.30
2023-02-25T03:40:15.167Z,16.92
2023-02-25T03:42:50.465Z,15.82
2023-02-25T03:45:17.143Z,16.48
2023-02-25T03:47:43.983Z,20.88
2023-02-25T03:50:15.657Z,14.63
2023-02-25T03:52:42.428Z,13.30
2023-02-25T03:55:10.282Z,15.68
2023-02-25T03:57:42.136Z,18.13
2023-02-25T04:00:30.945Z,20.30
2023-02-25T04:02:57.977Z,8.77
2023-02-25T04:05:28.232Z,19.00
2023-02-25T04:07:56.307Z,12.23
2023-02-25T04:10:22.861Z,14.65
2023-02-25T04:12:52.655Z,15.63
2023-02-25T04:15:20.391Z,14.45
2023-02-25T04:17:47.200Z,9.05
2023-02-25T04:20:16.332Z,20.05
2023-02-25T04:22:43.301Z,18.35
2023-02-25T04:25:09.947Z,11.82
2023-02-25T04:27:36.438Z,17.35
2023-02-25T04:30:03.091Z,16.95
2023-02-25T04:32:29.717Z,10.93
2023-02-25T04:34:57.627Z,19.73
2023-02-25T04:37:24.049Z,11.75
2023-02-25T04:39:50.483Z,18.90
2023-02-25T04:42:16.906Z,13.18
2023-02-25T04:44:43.318Z,12.80
2023-02-25T04:47:09.775Z,11.07
2023-02-25T04:49:44.757Z,10.32
2023-02-25T04:52:13.168Z,12.52
2023-02-25T04:54:39.959Z,20.63
2023-02-25T04:57:07.527Z,12.57
2023-02-25T04:59:33.999Z,13.82
2023-02-25T05:02:01.028Z,15.77
2023-02-25T05:04:27.725Z,15.68
2023-02-25T05:06:54.226Z,18.48
2023-02-25T05:09:21.282Z,15.75
2023-02-25T05:11:47.846Z,16.35
2023-02-25T05:14:14.315Z,14.27
2023-02-25T05:16:40.825Z,20.90
2023-02-25T05:19:07.345Z,16.35
2023-02-25T05:21:33.801Z,14.02
2023-02-25T05:24:00.264Z,16.13
2023-02-25T05:26:26.840Z,15.35
2023-02-25T05:28:56.178Z,19.30
2023-02-25T05:31:24.710Z,15.43
2023-02-25T05:33:52.209Z,13.73
2023-02-25T05:36:18.737Z,14.27
2023-02-25T05:38:45.602Z,17.83
2023-02-25T05:41:13.293Z,11.25
2023-02-25T05:43:40.158Z,16.95
2023-02-25T05:46:11.731Z,16.27
2023-02-25T05:48:42.598Z,10.27
2023-02-25T05:51:12.880Z,14.00
2023-02-25T05:53:39.500Z,11.18
2023-02-25T05:56:07.990Z,14.18
2023-02-25T05:58:35.040Z,17.02
2023-02-25T06:01:11.440Z,12.27
2023-02-25T06:03:38.819Z,12.07
2023-02-25T06:06:06.305Z,20.88
2023-02-25T06:08:33.582Z,17.63
2023-02-25T06:11:01.788Z,15.93
2023-02-25T06:13:28.356Z,15.23
2023-02-25T06:15:54.843Z,17.52
2023-02-25T06:18:21.702Z,14.15
2023-02-25T06:20:48.144Z,12.52
2023-02-25T06:23:14.626Z,13.40
2023-02-25T06:25:41.078Z,12.25
2023-02-25T06:28:07.609Z,15.40
2023-02-25T06:30:34.118Z,27.02
2023-02-25T06:33:00.614Z,19.02
2023-02-25T06:35:27.133Z,17.95
2023-02-25T06:37:59.113Z,19.45
2023-02-25T06:40:26.818Z,15.68
2023-02-25T06:42:53.302Z,13.60
2023-02-25T06:45:19.955Z,16.73
2023-02-25T06:47:46.505Z,16.70
2023-02-25T06:50:13.450Z,14.20
2023-02-25T06:52:40.492Z,15.15
2023-02-25T06:55:07.571Z,12.35
2023-02-25T06:57:34.693Z,19.48
2023-02-25T07:00:01.575Z,13.75
2023-02-25T07:02:28.225Z,17.88
2023-02-25T07:04:54.978Z,17.85
2023-02-25T07:07:22.531Z,9.77
2023-02-25T07:09:49.026Z,16.60
2023-02-25T07:12:15.582Z,12.77
2023-02-25T07:14:42.068Z,20.30
2023-02-25T07:17:08.506Z,21.55
2023-02-25T07:19:35.348Z,16.30
2023-02-25T07:22:02.032Z,15.52
2023-02-25T07:24:28.595Z,24.33
2023-02-25T07:26:55.587Z,16.88
2023-02-25T07:29:22.820Z,16.75
2023-02-25T07:31:49.595Z,19.13
2023-02-25T07:34:16.183Z,19.88
2023-02-25T07:36:43.790Z,18.75
2023-02-25T07:39:12.131Z,20.70
2023-02-25T07:41:38.934Z,13.85
2023-02-25T07:44:06.576Z,22.50
2023-02-25T07:46:33.943Z,23.02
2023-02-25T07:49:00.449Z,18.13
2023-02-25T07:51:27.074Z,29.40
2023-02-25T07:53:55.596Z,15.50
2023-02-25T07:56:24.043Z,12.55
2023-02-25T07:58:50.792Z,21.48
2023-02-25T08:01:29.503Z,22.25
2023-02-25T08:03:58.842Z,15.75
2023-02-25T08:06:26.259Z,16.70
2023-02-25T08:08:54.561Z,11.15
2023-02-25T08:11:22.978Z,15.48
2023-02-25T08:13:49.934Z,18.77
2023-02-25T08:16:18.957Z,17.60
2023-02-25T08:18:46.941Z,18.38
2023-02-25T08:21:15.857Z,17.38
2023-02-25T08:23:42.305Z,22.30
2023-02-25T08:26:11.508Z,19.08
2023-02-25T08:28:38.012Z,20.48
2023-02-25T08:31:07.901Z,14.90
2023-02-25T08:33:34.459Z,12.18
2023-02-25T08:36:16.081Z,17.58
2023-02-25T08:38:42.883Z,16.83
2023-02-25T08:41:09.459Z,16.77
2023-02-25T08:43:37.074Z,19.92
2023-02-25T08:46:04.370Z,16.25
2023-02-25T08:48:30.804Z,17.73
2023-02-25T08:51:02.720Z,17.60
2023-02-25T08:53:29.153Z,18.77
2023-02-25T08:55:55.552Z,18.10
2023-02-25T08:58:22.039Z,16.38
2023-02-25T09:00:50.041Z,21.75
2023-02-25T09:03:16.853Z,18.20
2023-02-25T09:05:43.709Z,16.58
2023-02-25T09:08:10.214Z,17.85
2023-02-25T09:10:49.538Z,24.52
2023-02-25T09:13:17.253Z,17.08
2023-02-25T09:15:43.704Z,17.63
2023-02-25T09:18:11.649Z,20.83
2023-02-25T09:20:38.104Z,20.13
2023-02-25T09:23:04.556Z,18.58
2023-02-25T09:25:30.975Z,22.90
2023-02-25T09:27:57.384Z,12.55
2023-02-25T09:30:23.927Z,24.75
2023-02-25T09:32:50.530Z,12.55
2023-02-25T09:35:17.213Z,11.30
2023-02-25T09:37:43.747Z,13.40
2023-02-25T09:40:17.093Z,16.88
2023-02-25T09:42:53.538Z,14.80
2023-02-25T09:45:24.937Z,9.50
2023-02-25T09:47:58.711Z,11.02
2023-02-25T09:50:46.611Z,19.73
2023-02-25T09:53:26.015Z,17.85
2023-02-25T09:55:53.150Z,10.45
2023-02-25T09:58:41.479Z,14.38
2023-02-25T10:01:10.951Z,8.57
2023-02-25T10:03:58.574Z,12.63
2023-02-25T10:06:35.195Z,17.13
2023-02-25T10:09:09.584Z,13.77
2023-02-25T10:11:58.008Z,9.80
2023-02-25T10:14:51.691Z,12.95
2023-02-25T10:17:21.063Z,10.95
2023-02-25T10:20:18.789Z,10.30
2023-02-25T10:23:06.735Z,11.40
2023-02-25T10:25:39.196Z,11.88
2023-02-25T10:28:16.374Z,15.95
2023-02-25T10:31:06.764Z,8.52
2023-02-25T10:33:42.919Z,10.90
2023-02-25T10:36:14.946Z,8.05
2023-02-25T10:38:48.659Z,9.15
2023-02-25T10:41:16.257Z,8.55
2023-02-25T10:43:44.477Z,9.57
2023-02-25T10:46:23.259Z,7.32
2023-02-25T10:49:00.859Z,3.45
2023-02-25T10:51:29.635Z,6.32
2023-02-25T10:53:56.075Z,5.88
2023-02-25T10:56:25.651Z,9.30
2023-02-25T10:59:39.291Z,6.60
2023-02-25T11:02:21.220Z,8.60
2023-02-25T11:04:49.603Z,6.55
2023-02-25T11:07:30.477Z,7.18
2023-02-25T11:10:19.430Z,8.38
2023-02-25T11:12:53.058Z,6.18
2023-02-25T11:15:41.625Z,6.53
2023-02-25T11:18:21.892Z,6.57
2023-02-25T11:21:00.654Z,8.18
2023-02-25T11:23:45.719Z,9.50
2023-02-25T11:26:34.066Z,5.45
2023-02-25T11:29:05.069Z,4.18
2023-02-25T11:31:36.765Z,6.47
2023-02-25T11:34:12.616Z,8.82
2023-02-25T11:36:39.960Z,8.88
2023-02-25T11:39:27.887Z,3.95
2023-02-25T11:41:57.719Z,6.47
2023-02-25T11:44:31.785Z,7.68
2023-02-25T11:46:58.155Z,7.00
2023-02-25T11:49:51.364Z,6.72
2023-02-25T11:52:44.265Z,6.07
2023-02-25T11:55:51.441Z,4.07
2023-02-25T11:58:44.590Z,5.00
2023-02-25T12:01:13.919Z,3.75
2023-02-25T12:04:34.697Z,6.05
2023-02-25T12:07:15.241Z,5.13
2023-02-25T12:09:56.772Z,7.20
2023-02-25T12:12:41.310Z,5.18
2023-02-25T12:15:23.649Z,7.03
2023-02-25T12:18:23.392Z,5.63
2023-02-25T12:21:12.852Z,4.82
2023-02-25T12:24:17.288Z,6.82
2023-02-25T12:26:52.822Z,4.28
2023-02-25T12:29:43.594Z,3.55
2023-02-25T12:32:43.734Z,7.05
2023-02-25T12:35:39.738Z,7.10
2023-02-25T12:38:29.401Z,7.85
2023-02-25T12:41:07.838Z,6.68
2023-02-25T12:44:13.383Z,4.70
2023-02-25T12:46:59.032Z,4.63
2023-02-25T12:50:22.696Z,7.90
2023-02-25T12:52:58.095Z,7.55
2023-02-25T12:55:44.101Z,4.88
2023-02-25T12:58:26.857Z,4.97
2023-02-25T13:00:53.306Z,3.28
2023-02-25T13:03:54.373Z,5.30
2023-02-25T13:06:53.197Z,6.03
2023-02-25T13:09:37.899Z,5.32
2023-02-25T13:12:29.808Z,6.93
2023-02-25T13:15:20.641Z,7.18
2023-02-25T13:18:11.533Z,8.02
2023-02-25T13:21:01.242Z,11.32
2023-02-25T13:23:56.446Z,10.65
2023-02-25T13:26:47.370Z,9.05
2023-02-25T13:29:25.727Z,7.30
2023-02-25T13:32:08.671Z,8.00
2023-02-25T13:34:48.083Z,9.55
2023-02-25T13:37:23.766Z,3.30
2023-02-25T13:40:02.596Z,8.57
2023-02-25T13:42:46.091Z,5.50
2023-02-25T13:45:51.141Z,3.65
2023-02-25T13:48:35.461Z,7.28
2023-02-25T13:51:14.018Z,9.02
2023-02-25T13:53:53.234Z,6.13
2023-02-25T13:56:34.858Z,9.68
2023-02-25T13:59:16.660Z,5.95
2023-02-25T14:01:46.041Z,10.63
2023-02-25T14:04:35.022Z,5.18
2023-02-25T14:07:10.405Z,8.13
2023-02-25T14:09:53.395Z,3.40
2023-02-25T14:12:57.577Z,7.07
2023-02-25T14:15:52.129Z,6.22
2023-02-25T14:18:47.484Z,8.20
2023-02-25T14:21:39.934Z,7.40
2023-02-25T14:24:16.675Z,6.97
2023-02-25T14:26:49.554Z,4.07
2023-02-25T14:29:42.826Z,8.00
2023-02-25T14:32:24.511Z,6.05
2023-02-25T14:35:24.732Z,6.03
2023-02-25T14:38:17.930Z,7.20
2023-02-25T14:41:08.946Z,8.75
2023-02-25T14:43:36.628Z,7.28
2023-02-25T14:46:15.430Z,4.70
2023-02-25T14:48:46.453Z,9.85
2023-02-25T14:51:36.083Z,5.55
2023-02-25T14:54:34.874Z,7.60
2023-02-25T14:57:32.534Z,8.38
2023-02-25T15:00:23.462Z,5.07
2023-02-25T15:03:17.688Z,4.43
2023-02-25T15:05:54.509Z,8.50
2023-02-25T15:11:05.692Z,5.97
2023-02-25T15:14:06.245Z,6.00
2023-02-25T15:17:00.689Z,4.97
2023-02-25T15:19:37.941Z,2.83
2023-02-25T15:22:29.460Z,5.00
2023-02-25T15:25:37.848Z,3.35
2023-02-25T15:28:30.097Z,3.53
2023-02-25T15:31:00.315Z,4.00
2023-02-25T15:33:37.418Z,5.32
2023-02-25T15:36:16.354Z,6.40
2023-02-25T15:38:56.495Z,5.75
2023-02-25T15:41:29.106Z,4.65
2023-02-25T15:44:01.047Z,5.32
2023-02-25T15:46:33.534Z,3.80
2023-02-25T15:49:30.297Z,3.60
2023-02-25T15:52:00.828Z,4.80
2023-02-25T15:54:27.668Z,3.22
2023-02-25T15:56:55.863Z,5.20
2023-02-25T15:59:43.809Z,7.90
2023-02-25T16:02:35.137Z,6.38
2023-02-25T16:05:17.350Z,3.58
2023-02-25T16:07:47.275Z,4.55
2023-02-25T16:10:32.521Z,5.53
2023-02-25T16:13:00.955Z,4.10
2023-02-25T16:15:42.046Z,3.78
2023-02-25T16:18:15.128Z,4.10
2023-02-25T16:20:48.268Z,6.82
2023-02-25T16:23:15.840Z,5.05
2023-02-25T16:26:10.239Z,5.68
2023-02-25T16:28:55.863Z,4.03
2023-02-25T16:31:33.269Z,4.97
2023-02-25T16:34:09.775Z,3.03
2023-02-25T16:36:45.363Z,3.03
2023-02-25T16:39:18.350Z,5.00
2023-02-25T16:41:45.004Z,15.43
2023-02-25T16:44:20.411Z,4.53
2023-02-25T16:46:51.420Z,2.42
2023-02-25T16:49:28.569Z,5.25
2023-02-25T16:51:55.174Z,3.78
2023-02-25T16:54:33.223Z,3.00
2023-02-25T16:57:02.909Z,4.82
2023-02-25T16:59:34.353Z,3.30
2023-02-25T17:02:22.401Z,5.10
2023-02-25T17:04:51.452Z,4.32
2023-02-25T17:07:20.004Z,8.85
2023-02-25T17:09:53.764Z,7.68
2023-02-25T17:12:36.782Z,4.28
2023-02-25T17:15:12.955Z,3.70
2023-02-25T17:17:41.167Z,3.30
2023-02-25T17:20:15.377Z,13.00
2023-02-25T17:22:44.134Z,12.50
2023-02-25T17:25:17.758Z,21.85
2023-02-25T17:27:47.421Z,5.38
2023-02-25T17:30:33.243Z,14.18
2023-02-25T17:32:59.922Z,9.20
2023-02-25T17:35:27.860Z,10.23
2023-02-25T17:37:56.082Z,11.60
2023-02-25T17:40:26.872Z,7.70
2023-02-25T17:43:26.089Z,3.15
2023-02-25T17:46:13.956Z,3.90
2023-02-25T17:48:43.345Z,3.67
2023-02-25T17:51:10.601Z,6.20
2023-02-25T17:54:09.703Z,5.60
2023-02-25T17:56:36.680Z,5.97
2023-02-25T17:59:28.027Z,5.43
2023-02-25T18:01:56.521Z,3.25
2023-02-25T18:04:36.755Z,6.50
2023-02-25T18:07:29.824Z,3.60
2023-02-25T18:09:57.349Z,7.32
2023-02-25T18:12:27.846Z,7.35
2023-02-25T18:14:58.481Z,4.57
2023-02-25T18:17:35.746Z,9.85
2023-02-25T18:20:06.719Z,10.43
2023-02-25T18:25:02.568Z,7.63
2023-02-25T18:27:33.674Z,4.57
2023-02-25T18:30:18.052Z,4.35
2023-02-25T18:32:45.787Z,4.75
2023-02-25T18:35:12.207Z,3.90
2023-02-25T18:37:39.252Z,5.15
2023-02-25T18:40:07.071Z,4.95
2023-02-25T18:42:33.562Z,6.13
2023-02-25T18:45:00.021Z,5.68
2023-02-25T18:47:29.612Z,5.32
2023-02-25T18:49:56.046Z,2.75
2023-02-25T18:52:25.160Z,3.33
2023-02-25T18:54:51.592Z,3.33
2023-02-25T18:57:22.357Z,4.25
2023-02-25T18:59:49.108Z,7.60
2023-02-25T19:02:23.120Z,6.30
2023-02-25T19:04:49.648Z,6.07
2023-02-25T19:07:16.109Z,10.05
2023-02-25T19:09:42.563Z,6.28
2023-02-25T19:12:13.691Z,5.70
2023-02-25T19:14:41.735Z,6.10
2023-02-25T19:17:16.129Z,6.05
2023-02-25T19:19:46.407Z,5.15
2023-02-25T19:22:15.287Z,3.88
2023-02-25T19:24:47.907Z,3.35
2023-02-25T19:27:23.181Z,5.90
2023-02-25T19:29:51.869Z,7.00
2023-02-25T19:32:19.710Z,7.97
2023-02-25T19:34:47.663Z,7.28
2023-02-25T19:37:16.162Z,6.25
2023-02-25T19:39:43.116Z,4.00
2023-02-25T19:42:10.619Z,4.57
2023-02-25T19:44:37.146Z,5.15
2023-02-25T19:47:04.516Z,4.75
2023-02-25T19:49:31.086Z,5.00
2023-02-25T19:51:57.570Z,6.00
2023-02-25T19:54:26.131Z,3.47
2023-02-25T19:56:52.632Z,8.38
2023-02-25T19:59:19.108Z,6.75
2023-02-25T20:01:47.063Z,7.03
2023-02-25T20:04:13.500Z,3.45
2023-02-25T20:06:39.934Z,7.32
2023-02-25T20:09:08.997Z,4.82
2023-02-25T20:11:35.779Z,5.68
2023-02-25T20:14:03.962Z,3.92
2023-02-25T20:16:31.909Z,5.25
2023-02-25T20:18:58.480Z,12.50
2023-02-25T20:21:26.422Z,5.55
2023-02-25T20:23:53.274Z,3.50
2023-02-25T20:26:23.004Z,4.43
2023-02-25T20:28:53.979Z,3.38
2023-02-25T20:31:21.505Z,2.67
2023-02-25T20:33:50.156Z,8.73
2023-02-25T20:36:31.255Z,3.60
2023-02-25T20:39:21.699Z,3.92
2023-02-25T20:41:48.373Z,6.78
2023-02-25T20:44:16.574Z,5.30
2023-02-25T20:46:43.681Z,5.40
2023-02-25T20:49:15.941Z,4.22
2023-02-25T20:51:44.770Z,4.30
2023-02-25T20:54:12.189Z,3.13
2023-02-25T20:56:39.947Z,10.15
2023-02-25T20:59:06.760Z,3.53
2023-02-25T21:01:33.439Z,9.52
2023-02-25T21:04:00.152Z,4.57
2023-02-25T21:06:27.548Z,6.80
2023-02-25T21:08:54.850Z,4.03
2023-02-25T21:11:23.947Z,3.83
2023-02-25T21:13:51.572Z,6.28
2023-02-25T21:16:19.652Z,5.78
2023-02-25T21:18:47.326Z,5.05
2023-02-25T21:21:16.207Z,8.20
2023-02-25T21:23:43.410Z,5.20
2023-02-25T21:26:11.757Z,7.25
2023-02-25T21:28:40.910Z,4.93
2023-02-25T21:31:10.862Z,4.70
2023-02-25T21:33:38.891Z,7.50
2023-02-25T21:36:07.217Z,8.40
2023-02-25T21:38:34.189Z,4.75
2023-02-25T21:41:06.914Z,5.30
2023-02-25T21:43:33.641Z,6.30
2023-02-25T21:46:02.663Z,11.68
2023-02-25T21:48:31.276Z,9.88
2023-02-25T21:50:58.559Z,7.75
2023-02-25T21:53:27.494Z,6.43
2023-02-25T21:55:55.469Z,9.32
2023-02-25T21:58:22.830Z,6.70
2023-02-25T22:00:50.079Z,8.30
2023-02-25T22:03:17.089Z,14.80
2023-02-25T22:05:45.858Z,8.13
2023-02-25T22:08:12.998Z,6.88
2023-02-25T22:10:40.780Z,11.18
2023-02-25T22:13:08.448Z,9.35
2023-02-25T22:15:35.482Z,9.85
2023-02-25T22:18:02.221Z,10.57
2023-02-25T22:20:28.729Z,6.95
2023-02-25T22:22:57.752Z,6.18
2023-02-25T22:25:24.253Z,6.85
2023-02-25T22:27:52.059Z,7.70
2023-02-25T22:30:19.270Z,6.47
2023-02-25T22:32:45.757Z,6.88
2023-02-25T22:35:12.305Z,7.07
2023-02-25T22:37:38.822Z,5.70
2023-02-25T22:40:06.029Z,4.50
2023-02-25T22:42:32.465Z,10.68
2023-02-25T22:44:58.900Z,10.38
2023-02-25T22:47:25.522Z,8.73
2023-02-25T22:49:52.007Z,9.35
2023-02-25T22:52:18.466Z,23.67
2023-02-25T22:54:46.052Z,14.55
2023-02-25T22:57:12.535Z,8.27
2023-02-25T22:59:38.972Z,7.75
2023-02-25T23:02:05.444Z,12.63
2023-02-25T23:04:32.784Z,7.70
2023-02-25T23:07:00.926Z,10.98
2023-02-25T23:09:27.532Z,9.75
2023-02-25T23:11:54.615Z,7.35
2023-02-25T23:14:21.096Z,6.50
2023-02-25T23:16:47.712Z,4.35
2023-02-25T23:19:19.675Z,4.85
2023-02-25T23:21:46.180Z,6.65
2023-02-25T23:24:19.005Z,9.48
2023-02-25T23:26:47.616Z,12.98
2023-02-25T23:29:14.456Z,17.45
2023-02-25T23:31:46.909Z,6.68
2023-02-25T23:34:20.185Z,9.05
2023-02-25T23:36:47.296Z,8.10
2023-02-25T23:39:15.415Z,9.93
2023-02-25T23:41:42.299Z,11.57
2023-02-25T23:44:09.566Z,9.30
2023-02-25T23:46:37.294Z,6.15
2023-02-25T23:49:06.571Z,5.15
2023-02-25T23:51:33.875Z,4.05
2023-02-25T23:54:03.237Z,3.50
2023-02-25T23:56:31.165Z,8.68
2023-02-25T23:58:57.710Z,3.92
